首页
METAR-TAF:

METAR-TAF

机场 :

尚贝里 / 艾克斯-就业辅导组班, 法国

纬度: 45-39N, 经度: 005-53E, 海拔: 235米

当前天气观测

该预报发布于18分钟前的14:30 UTC
风速3节,风向
温度 12°C
湿度 67%
气压 1019 hPa
能见度10公里或以上
少量云层高于5600英尺
多云层高于9400英尺
多云层高于14000英尺

METAR: LFLB 071430Z AUTO 35003KT 9999 FEW056 BKN094 BKN140 12/06 Q1019 TEMPO VRB13KT 3000 SHRA BKN035TCU

时间: 15:48 (14:48 UTC)

预报

该预报发布于6小时和48分钟前的08:00 UTC
预报有效从07日的 09点(UTC)到 08日的 09点(UTC)
风速2节,风向多变
能見度: 4500
散云层高于3500英尺
多云层高于8000英尺
轻雾
成为
从 07日的 09点(UTC)到 07日的 11点(UTC)
能见度10公里或以上
短暂存在
从 07日的 11点(UTC)到 07日的 16点(UTC)
风速10节,风向
少量云层高于4500英尺, 塔状积云.
短暂存在
从 07日的 16点(UTC)到 07日的 22点(UTC)
风速13节,风向多变
能見度: 3000
多云层高于3500英尺, 塔状积云.
阵雨
成为
从 07日的 22点(UTC)到 07日的 24点(UTC)
能見度: 3000
轻雾
短暂存在
从 08日的 02点(UTC)到 08日的 08点(UTC)
多云层高于1200英尺
成为
从 08日的 06点(UTC)到 08日的 09点(UTC)
风速10节,风向
能见度10公里或以上

TAF: LFLB 070800Z 0709/0809 VRB02KT 4500 BR SCT035 BKN080 BECMG 0709/0711 9999 NSW TEMPO 0711/0716 36010KT FEW045TCU TEMPO 0716/0722 VRB13KT 3000 SHRA BKN035TCU BECMG 0722/0724 3000 BR TEMPO 0802/0808 BKN012 BECMG 0806/0809 36010KT 9999 NSW

超过4000个机场的气象观测和天气预报(METAR&TAF报告)。

可查询的气象台以黄色和红色小点在地图上表示。

将鼠标移到小点上方,可查看气象台名称。

然后点击查看天气观测和预报。

如需切换地图:点击带黑十字的绿色按钮放大地图;点击带横线的绿色按钮缩小地图;或者点击绿色箭头查看邻近地区的地图。


METAR-TAF: